sensor_id;sensor_type;location;lat;lon;timestamp;temperature;humidity
1205;DHT22;592;48.764;9.174;2023-07-29T06:56:00;19.40;99.90
1205;DHT22;592;48.764;9.174;2023-07-29T06:58:48;19.30;99.90
1205;DHT22;592;48.764;9.174;2023-07-29T07:01:47;19.30;99.90
1205;DHT22;592;48.764;9.174;2023-07-29T07:31:17;19.00;99.90
1205;DHT22;592;48.764;9.174;2023-07-29T07:34:24;19.00;99.90
1205;DHT22;592;48.764;9.174;2023-07-29T07:37:44;19.00;99.90
1205;DHT22;592;48.764;9.174;2023-07-29T08:48:56;20.40;99.90
1205;DHT22;592;48.764;9.174;2023-07-29T08:51:29;20.50;99.90
1205;DHT22;592;48.764;9.174;2023-07-29T08:53:58;20.80;99.90
1205;DHT22;592;48.764;9.174;2023-07-29T08:56:25;21.00;99.90
1205;DHT22;592;48.764;9.174;2023-07-29T08:58:53;21.40;99.90
1205;DHT22;592;48.764;9.174;2023-07-29T09:01:21;21.40;99.90
1205;DHT22;592;48.764;9.174;2023-07-29T09:03:56;21.50;99.90
1205;DHT22;592;48.764;9.174;2023-07-29T09:06:23;21.50;99.90
1205;DHT22;592;48.764;9.174;2023-07-29T09:08:53;21.50;99.90
1205;DHT22;592;48.764;9.174;2023-07-29T09:11:25;21.60;99.90
1205;DHT22;592;48.764;9.174;2023-07-29T09:13:52;21.70;99.90
1205;DHT22;592;48.764;9.174;2023-07-29T09:16:20;21.50;99.90
1205;DHT22;592;48.764;9.174;2023-07-29T09:18:48;21.50;99.90
1205;DHT22;592;48.764;9.174;2023-07-29T09:21:17;21.50;99.90
1205;DHT22;592;48.764;9.174;2023-07-29T09:23:45;21.70;99.90
1205;DHT22;592;48.764;9.174;2023-07-29T09:26:11;21.80;99.90
1205;DHT22;592;48.764;9.174;2023-07-29T09:28:40;21.90;99.90
1205;DHT22;592;48.764;9.174;2023-07-29T09:31:07;21.90;99.90
1205;DHT22;592;48.764;9.174;2023-07-29T09:33:44;21.90;99.90
1205;DHT22;592;48.764;9.174;2023-07-29T09:36:11;21.80;99.90
1205;DHT22;592;48.764;9.174;2023-07-29T09:38:40;21.80;99.90
1205;DHT22;592;48.764;9.174;2023-07-29T09:41:07;21.90;99.90
1205;DHT22;592;48.764;9.174;2023-07-29T09:43:34;22.00;99.90
1205;DHT22;592;48.764;9.174;2023-07-29T09:46:02;22.00;99.90
1205;DHT22;592;48.764;9.174;2023-07-29T09:48:33;22.00;99.90
1205;DHT22;592;48.764;9.174;2023-07-29T09:51:01;21.90;99.90
1205;DHT22;592;48.764;9.174;2023-07-29T09:53:41;21.90;99.90
1205;DHT22;592;48.764;9.174;2023-07-29T09:56:09;22.10;99.90
1205;DHT22;592;48.764;9.174;2023-07-29T09:58:36;22.10;99.90
1205;DHT22;592;48.764;9.174;2023-07-29T10:01:06;22.00;99.90
1205;DHT22;592;48.764;9.174;2023-07-29T10:03:33;22.10;99.90
1205;DHT22;592;48.764;9.174;2023-07-29T10:09:06;22.60;99.90
1205;DHT22;592;48.764;9.174;2023-07-29T10:11:34;22.80;99.90
1205;DHT22;592;48.764;9.174;2023-07-29T10:14:09;22.90;99.90
1205;DHT22;592;48.764;9.174;2023-07-29T10:16:42;23.20;99.90
1205;DHT22;592;48.764;9.174;2023-07-29T10:19:10;23.40;99.90
1205;DHT22;592;48.764;9.174;2023-07-29T10:21:39;23.40;99.90
1205;DHT22;592;48.764;9.174;2023-07-29T10:24:11;23.60;99.90
1205;DHT22;592;48.764;9.174;2023-07-29T10:26:42;23.70;99.90
1205;DHT22;592;48.764;9.174;2023-07-29T10:29:12;23.60;99.90
1205;DHT22;592;48.764;9.174;2023-07-29T10:31:40;23.70;99.90
1205;DHT22;592;48.764;9.174;2023-07-29T10:34:10;23.70;99.90
1205;DHT22;592;48.764;9.174;2023-07-29T10:36:37;23.80;99.90
1205;DHT22;592;48.764;9.174;2023-07-29T10:39:05;23.70;99.90
1205;DHT22;592;48.764;9.174;2023-07-29T10:41:58;23.50;99.90
1205;DHT22;592;48.764;9.174;2023-07-29T10:44:47;23.60;99.90
1205;DHT22;592;48.764;9.174;2023-07-29T10:47:16;23.60;99.90
1205;DHT22;592;48.764;9.174;2023-07-29T10:49:44;23.30;99.90
1205;DHT22;592;48.764;9.174;2023-07-29T10:52:13;23.10;99.90
1205;DHT22;592;48.764;9.174;2023-07-29T10:54:45;23.20;99.90
1205;DHT22;592;48.764;9.174;2023-07-29T10:57:30;23.40;99.90
1205;DHT22;592;48.764;9.174;2023-07-29T11:00:00;23.60;99.90
1205;DHT22;592;48.764;9.174;2023-07-29T11:22:17;24.10;99.90
1205;DHT22;592;48.764;9.174;2023-07-29T11:24:47;24.00;99.90
1205;DHT22;592;48.764;9.174;2023-07-29T11:55:54;24.40;99.90
1205;DHT22;592;48.764;9.174;2023-07-29T11:58:53;24.70;99.90
1205;DHT22;592;48.764;9.174;2023-07-29T12:01:27;24.90;99.90
1205;DHT22;592;48.764;9.174;2023-07-29T12:04:06;24.50;99.90
1205;DHT22;592;48.764;9.174;2023-07-29T12:07:07;24.60;99.90
1205;DHT22;592;48.764;9.174;2023-07-29T12:09:40;24.90;99.90
1205;DHT22;592;48.764;9.174;2023-07-29T12:12:25;25.10;99.90
1205;DHT22;592;48.764;9.174;2023-07-29T12:14:55;24.60;99.90
1205;DHT22;592;48.764;9.174;2023-07-29T12:17:31;24.70;99.90
1205;DHT22;592;48.764;9.174;2023-07-29T12:20:00;25.10;99.90
1205;DHT22;592;48.764;9.174;2023-07-29T12:22:38;25.30;99.90
1205;DHT22;592;48.764;9.174;2023-07-29T12:25:06;25.30;99.90
1205;DHT22;592;48.764;9.174;2023-07-29T12:27:53;25.40;99.90
1205;DHT22;592;48.764;9.174;2023-07-29T12:30:28;25.50;99.90
1205;DHT22;592;48.764;9.174;2023-07-29T12:32:55;25.60;99.90
1205;DHT22;592;48.764;9.174;2023-07-29T12:35:24;25.70;99.90
1205;DHT22;592;48.764;9.174;2023-07-29T12:38:02;25.70;99.90
1205;DHT22;592;48.764;9.174;2023-07-29T12:40:32;25.80;99.90
1205;DHT22;592;48.764;9.174;2023-07-29T12:49:47;25.80;99.90
1205;DHT22;592;48.764;9.174;2023-07-29T12:52:23;25.70;99.90
1205;DHT22;592;48.764;9.174;2023-07-29T12:54:50;25.60;99.90
1205;DHT22;592;48.764;9.174;2023-07-29T12:57:18;25.60;99.90
1205;DHT22;592;48.764;9.174;2023-07-29T12:59:50;25.30;99.60
1205;DHT22;592;48.764;9.174;2023-07-29T13:02:20;25.30;99.90
1205;DHT22;592;48.764;9.174;2023-07-29T13:04:48;25.60;99.90
1205;DHT22;592;48.764;9.174;2023-07-29T13:07:15;25.60;99.90
1205;DHT22;592;48.764;9.174;2023-07-29T13:09:42;25.60;99.90
1205;DHT22;592;48.764;9.174;2023-07-29T13:12:09;25.50;99.90
1205;DHT22;592;48.764;9.174;2023-07-29T13:14:36;25.20;99.60
1205;DHT22;592;48.764;9.174;2023-07-29T13:17:02;25.10;99.60
1205;DHT22;592;48.764;9.174;2023-07-29T13:19:29;25.10;99.90
1205;DHT22;592;48.764;9.174;2023-07-29T13:21:57;25.20;99.90
1205;DHT22;592;48.764;9.174;2023-07-29T13:24:24;25.40;99.90
1205;DHT22;592;48.764;9.174;2023-07-29T13:26:51;25.60;99.90
1205;DHT22;592;48.764;9.174;2023-07-29T13:29:18;25.60;99.90
1205;DHT22;592;48.764;9.174;2023-07-29T13:31:45;25.60;99.90
1205;DHT22;592;48.764;9.174;2023-07-29T13:34:11;25.40;99.90
1205;DHT22;592;48.764;9.174;2023-07-29T13:36:39;25.30;99.80
1205;DHT22;592;48.764;9.174;2023-07-29T13:39:07;25.30;99.90
1205;DHT22;592;48.764;9.174;2023-07-29T13:41:34;25.30;99.90
1205;DHT22;592;48.764;9.174;2023-07-29T13:44:01;25.20;99.10
1205;DHT22;592;48.764;9.174;2023-07-29T13:46:28;25.30;99.90
1205;DHT22;592;48.764;9.174;2023-07-29T13:48:55;25.60;99.90
1205;DHT22;592;48.764;9.174;2023-07-29T13:51:22;25.60;99.90
1205;DHT22;592;48.764;9.174;2023-07-29T13:53:49;25.50;98.60
1205;DHT22;592;48.764;9.174;2023-07-29T13:56:17;25.30;99.20
1205;DHT22;592;48.764;9.174;2023-07-29T13:58:45;25.30;99.20
1205;DHT22;592;48.764;9.174;2023-07-29T14:01:11;25.30;98.70
1205;DHT22;592;48.764;9.174;2023-07-29T14:03:38;25.50;99.60
1205;DHT22;592;48.764;9.174;2023-07-29T14:06:05;25.40;99.10
1205;DHT22;592;48.764;9.174;2023-07-29T14:08:31;25.50;99.70
1205;DHT22;592;48.764;9.174;2023-07-29T14:11:00;25.40;99.30
1205;DHT22;592;48.764;9.174;2023-07-29T14:13:28;25.50;99.60
1205;DHT22;592;48.764;9.174;2023-07-29T14:15:55;25.40;99.90
1205;DHT22;592;48.764;9.174;2023-07-29T14:18:22;25.20;99.10
1205;DHT22;592;48.764;9.174;2023-07-29T14:20:48;25.10;99.50
1205;DHT22;592;48.764;9.174;2023-07-29T14:23:16;25.30;99.70
1205;DHT22;592;48.764;9.174;2023-07-29T14:25:43;25.50;99.90
1205;DHT22;592;48.764;9.174;2023-07-29T14:28:10;25.50;99.40
1205;DHT22;592;48.764;9.174;2023-07-29T14:30:38;25.60;99.70
1205;DHT22;592;48.764;9.174;2023-07-29T14:33:06;25.60;99.90
1205;DHT22;592;48.764;9.174;2023-07-29T14:35:33;25.50;99.70
1205;DHT22;592;48.764;9.174;2023-07-29T14:38:00;25.60;99.90
1205;DHT22;592;48.764;9.174;2023-07-29T14:40:27;25.60;99.90
1205;DHT22;592;48.764;9.174;2023-07-29T14:42:53;25.60;99.90
1205;DHT22;592;48.764;9.174;2023-07-29T14:45:20;25.30;99.60
1205;DHT22;592;48.764;9.174;2023-07-29T14:47:48;25.10;99.90
1205;DHT22;592;48.764;9.174;2023-07-29T14:50:15;25.00;99.90
1205;DHT22;592;48.764;9.174;2023-07-29T14:52:42;25.00;99.90
1205;DHT22;592;48.764;9.174;2023-07-29T14:55:09;25.00;99.90
1205;DHT22;592;48.764;9.174;2023-07-29T14:57:35;25.00;99.90
1205;DHT22;592;48.764;9.174;2023-07-29T15:00:04;25.10;99.90
1205;DHT22;592;48.764;9.174;2023-07-29T15:02:31;25.40;99.90
1205;DHT22;592;48.764;9.174;2023-07-29T15:04:59;25.40;99.80
1205;DHT22;592;48.764;9.174;2023-07-29T15:07:26;25.20;99.80
1205;DHT22;592;48.764;9.174;2023-07-29T15:09:53;25.30;99.90
1205;DHT22;592;48.764;9.174;2023-07-29T15:12:20;25.30;99.90
1205;DHT22;592;48.764;9.174;2023-07-29T15:14:47;25.20;99.90
1205;DHT22;592;48.764;9.174;2023-07-29T15:17:14;25.30;99.90
1205;DHT22;592;48.764;9.174;2023-07-29T15:19:40;25.10;99.90
1205;DHT22;592;48.764;9.174;2023-07-29T15:22:09;25.00;99.90
1205;DHT22;592;48.764;9.174;2023-07-29T15:24:35;25.10;99.90
1205;DHT22;592;48.764;9.174;2023-07-29T15:27:04;25.30;99.90
1205;DHT22;592;48.764;9.174;2023-07-29T15:29:31;25.30;99.90
1205;DHT22;592;48.764;9.174;2023-07-29T15:31:58;25.40;99.90
1205;DHT22;592;48.764;9.174;2023-07-29T15:34:25;25.30;99.90
1205;DHT22;592;48.764;9.174;2023-07-29T15:36:52;25.50;99.90
1205;DHT22;592;48.764;9.174;2023-07-29T15:39:20;25.50;99.90
1205;DHT22;592;48.764;9.174;2023-07-29T15:41:46;25.70;99.90
1205;DHT22;592;48.764;9.174;2023-07-29T15:44:13;25.70;99.90
1205;DHT22;592;48.764;9.174;2023-07-29T15:46:40;25.70;99.90
1205;DHT22;592;48.764;9.174;2023-07-29T15:49:06;25.90;99.90
1205;DHT22;592;48.764;9.174;2023-07-29T15:51:35;26.00;99.90
1205;DHT22;592;48.764;9.174;2023-07-29T15:54:02;26.00;99.90
1205;DHT22;592;48.764;9.174;2023-07-29T15:56:30;25.90;99.50
1205;DHT22;592;48.764;9.174;2023-07-29T15:59:01;25.90;99.90
1205;DHT22;592;48.764;9.174;2023-07-29T16:01:30;26.00;99.90
1205;DHT22;592;48.764;9.174;2023-07-29T16:04:00;26.10;99.90
1205;DHT22;592;48.764;9.174;2023-07-29T16:09:11;26.20;99.90
1205;DHT22;592;48.764;9.174;2023-07-29T16:11:39;26.30;99.90
1205;DHT22;592;48.764;9.174;2023-07-29T16:14:08;26.30;99.60
1205;DHT22;592;48.764;9.174;2023-07-29T16:16:34;26.20;99.70
1205;DHT22;592;48.764;9.174;2023-07-29T16:19:01;25.80;98.30
1205;DHT22;592;48.764;9.174;2023-07-29T16:21:31;25.90;99.00
1205;DHT22;592;48.764;9.174;2023-07-29T16:23:57;25.90;99.10
1205;DHT22;592;48.764;9.174;2023-07-29T16:26:25;25.90;98.90
1205;DHT22;592;48.764;9.174;2023-07-29T16:28:54;25.70;98.50
1205;DHT22;592;48.764;9.174;2023-07-29T16:31:21;25.80;98.60
1205;DHT22;592;48.764;9.174;2023-07-29T16:33:49;25.80;98.60
1205;DHT22;592;48.764;9.174;2023-07-29T16:36:36;25.80;98.80
1205;DHT22;592;48.764;9.174;2023-07-29T16:39:04;25.70;99.00
1205;DHT22;592;48.764;9.174;2023-07-29T17:21:37;24.80;99.40
1205;DHT22;592;48.764;9.174;2023-07-29T17:24:04;24.80;98.80
1205;DHT22;592;48.764;9.174;2023-07-29T17:26:31;24.60;99.10
1205;DHT22;592;48.764;9.174;2023-07-29T17:28:58;24.90;99.80
1205;DHT22;592;48.764;9.174;2023-07-29T17:31:24;24.30;99.90
1205;DHT22;592;48.764;9.174;2023-07-29T17:34:19;23.90;99.90
1205;DHT22;592;48.764;9.174;2023-07-29T18:57:00;21.40;99.90
1205;DHT22;592;48.764;9.174;2023-07-29T18:59:27;21.50;99.90
1205;DHT22;592;48.764;9.174;2023-07-29T19:43:21;21.20;99.90
1205;DHT22;592;48.764;9.174;2023-07-29T19:45:50;21.20;99.90
1205;DHT22;592;48.764;9.174;2023-07-29T20:04:10;20.80;99.90
1205;DHT22;592;48.764;9.174;2023-07-29T20:06:37;20.80;99.90
1205;DHT22;592;48.764;9.174;2023-07-29T20:09:04;20.80;99.90
1205;DHT22;592;48.764;9.174;2023-07-29T20:11:32;20.70;99.90
1205;DHT22;592;48.764;9.174;2023-07-29T20:14:02;20.70;99.90
1205;DHT22;592;48.764;9.174;2023-07-29T20:16:29;20.60;99.90
1205;DHT22;592;48.764;9.174;2023-07-29T20:18:56;20.60;99.90
1205;DHT22;592;48.764;9.174;2023-07-29T20:21:25;20.60;99.90
1205;DHT22;592;48.764;9.174;2023-07-29T20:23:52;20.60;99.90
1205;DHT22;592;48.764;9.174;2023-07-29T20:26:20;20.60;99.90
1205;DHT22;592;48.764;9.174;2023-07-29T20:28:47;20.60;99.90
1205;DHT22;592;48.764;9.174;2023-07-29T20:59:44;20.40;99.90
1205;DHT22;592;48.764;9.174;2023-07-29T21:02:11;20.50;99.90
1205;DHT22;592;48.764;9.174;2023-07-29T21:04:38;20.70;99.90
1205;DHT22;592;48.764;9.174;2023-07-29T21:07:05;20.40;99.90
1205;DHT22;592;48.764;9.174;2023-07-29T21:09:33;20.50;99.90
1205;DHT22;592;48.764;9.174;2023-07-29T21:12:02;20.50;99.90
1205;DHT22;592;48.764;9.174;2023-07-29T21:14:30;20.30;99.90
1205;DHT22;592;48.764;9.174;2023-07-29T21:16:58;20.50;99.90
1205;DHT22;592;48.764;9.174;2023-07-29T21:19:26;20.30;99.90
1205;DHT22;592;48.764;9.174;2023-07-29T21:21:53;20.30;99.90
1205;DHT22;592;48.764;9.174;2023-07-29T21:24:20;20.40;99.90
1205;DHT22;592;48.764;9.174;2023-07-29T21:26:47;20.40;99.90
1205;DHT22;592;48.764;9.174;2023-07-29T21:29:17;20.40;99.90
1205;DHT22;592;48.764;9.174;2023-07-29T21:31:44;20.50;99.90
1205;DHT22;592;48.764;9.174;2023-07-29T21:34:13;20.40;99.90
1205;DHT22;592;48.764;9.174;2023-07-29T21:36:39;20.30;99.90
1205;DHT22;592;48.764;9.174;2023-07-29T21:39:06;20.20;99.90
1205;DHT22;592;48.764;9.174;2023-07-29T21:41:33;20.40;99.90
1205;DHT22;592;48.764;9.174;2023-07-29T21:44:00;20.40;99.90
1205;DHT22;592;48.764;9.174;2023-07-29T21:46:27;20.30;99.90
1205;DHT22;592;48.764;9.174;2023-07-29T21:48:54;20.30;99.90
1205;DHT22;592;48.764;9.174;2023-07-29T21:51:22;20.40;99.90
1205;DHT22;592;48.764;9.174;2023-07-29T21:53:51;20.30;99.90
1205;DHT22;592;48.764;9.174;2023-07-29T21:56:18;20.30;99.90
1205;DHT22;592;48.764;9.174;2023-07-29T21:58:44;20.30;99.90
1205;DHT22;592;48.764;9.174;2023-07-29T22:01:11;20.30;99.90
1205;DHT22;592;48.764;9.174;2023-07-29T22:03:38;20.30;99.90
1205;DHT22;592;48.764;9.174;2023-07-29T22:06:05;20.40;99.90
1205;DHT22;592;48.764;9.174;2023-07-29T22:08:33;20.30;99.90
1205;DHT22;592;48.764;9.174;2023-07-29T22:11:04;20.30;99.90
1205;DHT22;592;48.764;9.174;2023-07-29T22:13:31;20.30;99.90
1205;DHT22;592;48.764;9.174;2023-07-29T22:15:59;20.30;99.90
1205;DHT22;592;48.764;9.174;2023-07-29T22:18:26;20.20;99.90
1205;DHT22;592;48.764;9.174;2023-07-29T22:20:53;20.30;99.90
1205;DHT22;592;48.764;9.174;2023-07-29T22:23:20;20.30;99.90
1205;DHT22;592;48.764;9.174;2023-07-29T22:25:56;20.30;99.90
1205;DHT22;592;48.764;9.174;2023-07-29T22:28:22;20.40;99.90
1205;DHT22;592;48.764;9.174;2023-07-29T22:30:50;20.40;99.90
1205;DHT22;592;48.764;9.174;2023-07-29T22:33:17;20.40;99.90
1205;DHT22;592;48.764;9.174;2023-07-29T22:35:44;20.30;99.90
1205;DHT22;592;48.764;9.174;2023-07-29T22:38:10;20.40;99.90
1205;DHT22;592;48.764;9.174;2023-07-29T22:40:37;20.20;99.90
1205;DHT22;592;48.764;9.174;2023-07-29T22:43:05;20.10;99.90
1205;DHT22;592;48.764;9.174;2023-07-29T22:45:32;19.80;99.90
1205;DHT22;592;48.764;9.174;2023-07-29T22:47:59;19.80;99.90
1205;DHT22;592;48.764;9.174;2023-07-29T22:50:25;19.80;99.90
1205;DHT22;592;48.764;9.174;2023-07-29T22:52:52;19.90;99.90
1205;DHT22;592;48.764;9.174;2023-07-29T22:55:19;19.70;99.90
1205;DHT22;592;48.764;9.174;2023-07-29T22:57:45;19.90;99.90
1205;DHT22;592;48.764;9.174;2023-07-29T23:00:14;19.80;99.90
1205;DHT22;592;48.764;9.174;2023-07-29T23:02:41;19.70;99.90
1205;DHT22;592;48.764;9.174;2023-07-29T23:08:30;19.10;99.90
1205;DHT22;592;48.764;9.174;2023-07-29T23:11:00;19.10;99.90
1205;DHT22;592;48.764;9.174;2023-07-29T23:13:27;19.00;99.90
1205;DHT22;592;48.764;9.174;2023-07-29T23:15:59;19.00;99.90
1205;DHT22;592;48.764;9.174;2023-07-29T23:18:26;19.00;99.90
1205;DHT22;592;48.764;9.174;2023-07-29T23:20:53;19.10;99.90
1205;DHT22;592;48.764;9.174;2023-07-29T23:23:20;19.10;99.90
1205;DHT22;592;48.764;9.174;2023-07-29T23:25:47;19.20;99.90
1205;DHT22;592;48.764;9.174;2023-07-29T23:28:13;19.30;99.90
1205;DHT22;592;48.764;9.174;2023-07-29T23:30:40;19.40;99.90
1205;DHT22;592;48.764;9.174;2023-07-29T23:33:08;19.40;99.90
1205;DHT22;592;48.764;9.174;2023-07-29T23:35:35;19.30;99.90
1205;DHT22;592;48.764;9.174;2023-07-29T23:38:02;19.10;99.90
1205;DHT22;592;48.764;9.174;2023-07-29T23:40:28;18.70;99.90
1205;DHT22;592;48.764;9.174;2023-07-29T23:42:55;18.20;99.90
1205;DHT22;592;48.764;9.174;2023-07-29T23:45:22;17.90;99.90
1205;DHT22;592;48.764;9.174;2023-07-29T23:47:49;17.90;99.90
1205;DHT22;592;48.764;9.174;2023-07-29T23:50:17;17.90;99.90
1205;DHT22;592;48.764;9.174;2023-07-29T23:52:43;17.70;99.90
1205;DHT22;592;48.764;9.174;2023-07-29T23:55:10;17.70;99.90
1205;DHT22;592;48.764;9.174;2023-07-29T23:57:37;17.70;99.90
